sensor_id;sensor_type;location;lat;lon;timestamp;temperature;humidity
4548;DHT22;2286;51.570;7.090;2023-11-19T00:01:33;10.50;99.90
4548;DHT22;2286;51.570;7.090;2023-11-19T00:03:59;10.50;99.90
4548;DHT22;2286;51.570;7.090;2023-11-19T00:06:26;10.50;99.90
4548;DHT22;2286;51.570;7.090;2023-11-19T00:08:53;10.60;99.90
4548;DHT22;2286;51.570;7.090;2023-11-19T00:11:21;10.60;99.90
4548;DHT22;2286;51.570;7.090;2023-11-19T00:13:48;10.60;99.90
4548;DHT22;2286;51.570;7.090;2023-11-19T00:16:15;10.60;99.90
4548;DHT22;2286;51.570;7.090;2023-11-19T00:18:42;10.70;99.90
4548;DHT22;2286;51.570;7.090;2023-11-19T00:21:09;10.70;99.90
4548;DHT22;2286;51.570;7.090;2023-11-19T00:23:36;10.70;99.90
4548;DHT22;2286;51.570;7.090;2023-11-19T00:26:03;10.80;99.90
4548;DHT22;2286;51.570;7.090;2023-11-19T00:28:33;10.80;99.90
4548;DHT22;2286;51.570;7.090;2023-11-19T00:30:59;10.80;99.90
4548;DHT22;2286;51.570;7.090;2023-11-19T00:33:26;10.80;99.90
4548;DHT22;2286;51.570;7.090;2023-11-19T00:35:53;10.80;99.90
4548;DHT22;2286;51.570;7.090;2023-11-19T00:38:21;10.80;99.90
4548;DHT22;2286;51.570;7.090;2023-11-19T00:40:48;10.80;99.90
4548;DHT22;2286;51.570;7.090;2023-11-19T00:43:14;10.90;99.90
4548;DHT22;2286;51.570;7.090;2023-11-19T00:45:43;10.90;99.90
4548;DHT22;2286;51.570;7.090;2023-11-19T00:48:09;10.90;99.90
4548;DHT22;2286;51.570;7.090;2023-11-19T00:50:36;10.90;99.90
4548;DHT22;2286;51.570;7.090;2023-11-19T00:53:03;11.00;99.90
4548;DHT22;2286;51.570;7.090;2023-11-19T00:55:30;11.00;99.90
4548;DHT22;2286;51.570;7.090;2023-11-19T00:57:57;11.00;99.90
4548;DHT22;2286;51.570;7.090;2023-11-19T01:00:24;11.00;99.90
4548;DHT22;2286;51.570;7.090;2023-11-19T01:02:54;11.00;99.90
4548;DHT22;2286;51.570;7.090;2023-11-19T01:05:21;11.00;99.90
4548;DHT22;2286;51.570;7.090;2023-11-19T01:07:48;11.10;99.90
4548;DHT22;2286;51.570;7.090;2023-11-19T01:10:15;11.10;99.90
4548;DHT22;2286;51.570;7.090;2023-11-19T01:12:44;11.20;99.90
4548;DHT22;2286;51.570;7.090;2023-11-19T01:15:11;11.20;99.90
4548;DHT22;2286;51.570;7.090;2023-11-19T01:17:38;11.30;99.90
4548;DHT22;2286;51.570;7.090;2023-11-19T01:20:07;11.40;99.90
4548;DHT22;2286;51.570;7.090;2023-11-19T01:22:37;11.40;99.90
4548;DHT22;2286;51.570;7.090;2023-11-19T01:25:05;11.40;99.90
4548;DHT22;2286;51.570;7.090;2023-11-19T01:27:32;11.50;99.90
4548;DHT22;2286;51.570;7.090;2023-11-19T01:30:01;11.50;99.90
4548;DHT22;2286;51.570;7.090;2023-11-19T01:32:29;11.60;99.90
4548;DHT22;2286;51.570;7.090;2023-11-19T01:34:56;11.60;99.90
4548;DHT22;2286;51.570;7.090;2023-11-19T01:37:24;11.60;99.90
4548;DHT22;2286;51.570;7.090;2023-11-19T01:39:50;11.60;99.90
4548;DHT22;2286;51.570;7.090;2023-11-19T01:42:17;11.60;99.90
4548;DHT22;2286;51.570;7.090;2023-11-19T01:44:56;11.60;99.90
4548;DHT22;2286;51.570;7.090;2023-11-19T01:47:24;11.70;99.90
4548;DHT22;2286;51.570;7.090;2023-11-19T01:49:51;11.70;99.90
4548;DHT22;2286;51.570;7.090;2023-11-19T01:52:18;11.70;99.90
4548;DHT22;2286;51.570;7.090;2023-11-19T01:54:47;11.70;99.90
4548;DHT22;2286;51.570;7.090;2023-11-19T01:57:15;11.70;99.90
4548;DHT22;2286;51.570;7.090;2023-11-19T01:59:42;11.80;99.90
4548;DHT22;2286;51.570;7.090;2023-11-19T02:02:09;11.80;99.90
4548;DHT22;2286;51.570;7.090;2023-11-19T02:04:38;11.80;99.90
4548;DHT22;2286;51.570;7.090;2023-11-19T02:07:06;11.90;99.90
4548;DHT22;2286;51.570;7.090;2023-11-19T02:09:34;11.90;99.90
4548;DHT22;2286;51.570;7.090;2023-11-19T02:12:03;11.90;99.90
4548;DHT22;2286;51.570;7.090;2023-11-19T02:14:30;11.90;99.90
4548;DHT22;2286;51.570;7.090;2023-11-19T02:16:56;12.00;99.90
4548;DHT22;2286;51.570;7.090;2023-11-19T02:19:23;12.00;99.90
4548;DHT22;2286;51.570;7.090;2023-11-19T02:21:50;12.00;99.90
4548;DHT22;2286;51.570;7.090;2023-11-19T02:24:18;12.00;99.90
4548;DHT22;2286;51.570;7.090;2023-11-19T02:26:53;12.10;99.90
4548;DHT22;2286;51.570;7.090;2023-11-19T02:29:25;12.10;99.90
4548;DHT22;2286;51.570;7.090;2023-11-19T02:31:52;12.10;99.90
4548;DHT22;2286;51.570;7.090;2023-11-19T02:34:20;12.10;99.90
4548;DHT22;2286;51.570;7.090;2023-11-19T02:36:47;12.10;99.90
4548;DHT22;2286;51.570;7.090;2023-11-19T02:39:15;12.10;99.90
4548;DHT22;2286;51.570;7.090;2023-11-19T02:41:46;12.10;99.90
4548;DHT22;2286;51.570;7.090;2023-11-19T02:44:16;12.10;99.90
4548;DHT22;2286;51.570;7.090;2023-11-19T02:46:44;12.20;99.90
4548;DHT22;2286;51.570;7.090;2023-11-19T02:49:13;12.20;99.90
4548;DHT22;2286;51.570;7.090;2023-11-19T02:51:40;12.20;99.90
4548;DHT22;2286;51.570;7.090;2023-11-19T02:54:07;12.20;99.90
4548;DHT22;2286;51.570;7.090;2023-11-19T02:56:35;12.10;99.90
4548;DHT22;2286;51.570;7.090;2023-11-19T02:59:04;12.20;99.90
4548;DHT22;2286;51.570;7.090;2023-11-19T03:01:40;12.20;99.90
4548;DHT22;2286;51.570;7.090;2023-11-19T03:04:10;12.10;99.90
4548;DHT22;2286;51.570;7.090;2023-11-19T03:06:38;12.20;99.90
4548;DHT22;2286;51.570;7.090;2023-11-19T03:09:04;12.20;99.90
4548;DHT22;2286;51.570;7.090;2023-11-19T03:11:35;12.20;99.90
4548;DHT22;2286;51.570;7.090;2023-11-19T03:14:02;12.20;99.90
4548;DHT22;2286;51.570;7.090;2023-11-19T03:16:29;12.20;99.90
4548;DHT22;2286;51.570;7.090;2023-11-19T03:18:56;12.20;99.90
4548;DHT22;2286;51.570;7.090;2023-11-19T03:21:28;12.20;99.90
4548;DHT22;2286;51.570;7.090;2023-11-19T03:23:56;12.20;99.90
4548;DHT22;2286;51.570;7.090;2023-11-19T03:26:24;12.20;99.90
4548;DHT22;2286;51.570;7.090;2023-11-19T03:28:51;12.20;99.90
4548;DHT22;2286;51.570;7.090;2023-11-19T03:31:18;12.20;99.90
4548;DHT22;2286;51.570;7.090;2023-11-19T03:33:45;12.20;99.90
4548;DHT22;2286;51.570;7.090;2023-11-19T03:36:12;12.20;99.90
4548;DHT22;2286;51.570;7.090;2023-11-19T03:38:40;12.20;99.90
4548;DHT22;2286;51.570;7.090;2023-11-19T03:41:10;12.20;99.90
4548;DHT22;2286;51.570;7.090;2023-11-19T03:43:38;12.20;99.90
4548;DHT22;2286;51.570;7.090;2023-11-19T03:46:15;12.20;99.90
4548;DHT22;2286;51.570;7.090;2023-11-19T03:48:41;12.10;99.90
4548;DHT22;2286;51.570;7.090;2023-11-19T03:51:09;12.10;99.90
4548;DHT22;2286;51.570;7.090;2023-11-19T03:53:37;12.10;99.90
4548;DHT22;2286;51.570;7.090;2023-11-19T03:56:06;12.10;99.90
4548;DHT22;2286;51.570;7.090;2023-11-19T03:58:34;12.10;99.90
4548;DHT22;2286;51.570;7.090;2023-11-19T04:01:01;12.10;99.90
4548;DHT22;2286;51.570;7.090;2023-11-19T04:03:28;12.10;99.90
4548;DHT22;2286;51.570;7.090;2023-11-19T04:05:55;12.10;99.90
4548;DHT22;2286;51.570;7.090;2023-11-19T04:08:22;12.10;99.90
4548;DHT22;2286;51.570;7.090;2023-11-19T04:10:49;12.10;99.90
4548;DHT22;2286;51.570;7.090;2023-11-19T04:13:17;12.00;99.90
4548;DHT22;2286;51.570;7.090;2023-11-19T04:15:45;12.00;99.90
4548;DHT22;2286;51.570;7.090;2023-11-19T04:18:12;12.00;99.90
4548;DHT22;2286;51.570;7.090;2023-11-19T04:20:39;12.00;99.90
4548;DHT22;2286;51.570;7.090;2023-11-19T04:23:07;11.90;99.90
4548;DHT22;2286;51.570;7.090;2023-11-19T04:25:35;11.90;99.90
4548;DHT22;2286;51.570;7.090;2023-11-19T04:28:02;11.90;99.90
4548;DHT22;2286;51.570;7.090;2023-11-19T04:30:30;11.80;99.90
4548;DHT22;2286;51.570;7.090;2023-11-19T04:32:58;11.80;99.90
4548;DHT22;2286;51.570;7.090;2023-11-19T04:35:25;11.80;99.90
4548;DHT22;2286;51.570;7.090;2023-11-19T04:37:52;11.70;99.90
4548;DHT22;2286;51.570;7.090;2023-11-19T04:40:23;11.70;99.90
4548;DHT22;2286;51.570;7.090;2023-11-19T04:42:50;11.70;99.90
4548;DHT22;2286;51.570;7.090;2023-11-19T04:45:16;11.70;99.90
4548;DHT22;2286;51.570;7.090;2023-11-19T04:47:44;11.60;99.90
4548;DHT22;2286;51.570;7.090;2023-11-19T04:50:11;11.60;99.90
4548;DHT22;2286;51.570;7.090;2023-11-19T04:52:38;11.60;99.90
4548;DHT22;2286;51.570;7.090;2023-11-19T04:55:08;11.60;99.90
4548;DHT22;2286;51.570;7.090;2023-11-19T04:57:37;11.50;99.90
4548;DHT22;2286;51.570;7.090;2023-11-19T05:00:04;11.40;99.90
4548;DHT22;2286;51.570;7.090;2023-11-19T05:02:33;11.40;99.90
4548;DHT22;2286;51.570;7.090;2023-11-19T05:05:01;11.40;99.90
4548;DHT22;2286;51.570;7.090;2023-11-19T05:07:29;11.50;99.90
4548;DHT22;2286;51.570;7.090;2023-11-19T05:09:56;11.40;99.90
4548;DHT22;2286;51.570;7.090;2023-11-19T05:12:23;11.50;99.90
4548;DHT22;2286;51.570;7.090;2023-11-19T05:14:50;11.50;99.90
4548;DHT22;2286;51.570;7.090;2023-11-19T05:17:17;11.60;99.90
4548;DHT22;2286;51.570;7.090;2023-11-19T05:19:44;11.60;99.90
4548;DHT22;2286;51.570;7.090;2023-11-19T05:22:13;11.60;99.90
4548;DHT22;2286;51.570;7.090;2023-11-19T05:24:39;11.50;99.90
4548;DHT22;2286;51.570;7.090;2023-11-19T05:27:06;11.60;99.90
4548;DHT22;2286;51.570;7.090;2023-11-19T05:29:33;11.60;99.90
4548;DHT22;2286;51.570;7.090;2023-11-19T05:32:00;11.60;99.90
4548;DHT22;2286;51.570;7.090;2023-11-19T05:34:27;11.70;99.90
4548;DHT22;2286;51.570;7.090;2023-11-19T05:36:54;11.70;99.90
4548;DHT22;2286;51.570;7.090;2023-11-19T05:39:22;11.80;99.90
4548;DHT22;2286;51.570;7.090;2023-11-19T05:41:49;11.80;99.90
4548;DHT22;2286;51.570;7.090;2023-11-19T05:44:17;11.80;99.90
4548;DHT22;2286;51.570;7.090;2023-11-19T05:46:43;11.80;99.90
4548;DHT22;2286;51.570;7.090;2023-11-19T05:49:11;11.80;99.90
4548;DHT22;2286;51.570;7.090;2023-11-19T05:51:38;11.70;99.90
4548;DHT22;2286;51.570;7.090;2023-11-19T05:54:07;11.70;94.30
4548;DHT22;2286;51.570;7.090;2023-11-19T05:56:35;11.70;99.90
4548;DHT22;2286;51.570;7.090;2023-11-19T05:59:02;11.70;99.90
4548;DHT22;2286;51.570;7.090;2023-11-19T06:01:33;11.80;99.90
4548;DHT22;2286;51.570;7.090;2023-11-19T06:04:00;11.70;99.90
4548;DHT22;2286;51.570;7.090;2023-11-19T06:06:28;11.60;4.50
4548;DHT22;2286;51.570;7.090;2023-11-19T06:08:55;11.70;99.90
4548;DHT22;2286;51.570;7.090;2023-11-19T06:11:22;11.70;1.00
4548;DHT22;2286;51.570;7.090;2023-11-19T06:13:53;11.70;1.00
4548;DHT22;2286;51.570;7.090;2023-11-19T06:16:20;11.70;1.00
4548;DHT22;2286;51.570;7.090;2023-11-19T06:18:47;11.70;1.00
4548;DHT22;2286;51.570;7.090;2023-11-19T06:21:14;11.60;1.00
4548;DHT22;2286;51.570;7.090;2023-11-19T06:23:41;11.60;1.00
4548;DHT22;2286;51.570;7.090;2023-11-19T06:26:08;11.60;1.00
4548;DHT22;2286;51.570;7.090;2023-11-19T06:28:35;11.60;1.00
4548;DHT22;2286;51.570;7.090;2023-11-19T06:31:04;11.70;99.90
4548;DHT22;2286;51.570;7.090;2023-11-19T06:33:31;11.60;87.40
4548;DHT22;2286;51.570;7.090;2023-11-19T06:35:59;11.60;99.90
4548;DHT22;2286;51.570;7.090;2023-11-19T06:38:26;11.60;1.00
4548;DHT22;2286;51.570;7.090;2023-11-19T06:40:52;11.60;1.00
4548;DHT22;2286;51.570;7.090;2023-11-19T06:43:19;11.60;99.90
4548;DHT22;2286;51.570;7.090;2023-11-19T06:45:47;11.60;1.00
4548;DHT22;2286;51.570;7.090;2023-11-19T06:48:15;11.60;99.90
4548;DHT22;2286;51.570;7.090;2023-11-19T06:50:42;11.60;99.90
4548;DHT22;2286;51.570;7.090;2023-11-19T06:53:09;11.60;99.90
4548;DHT22;2286;51.570;7.090;2023-11-19T06:55:37;11.70;1.00
4548;DHT22;2286;51.570;7.090;2023-11-19T06:58:03;11.70;1.00
4548;DHT22;2286;51.570;7.090;2023-11-19T07:00:30;11.70;1.20
4548;DHT22;2286;51.570;7.090;2023-11-19T07:02:58;11.70;1.00
4548;DHT22;2286;51.570;7.090;2023-11-19T07:05:26;11.70;99.90
4548;DHT22;2286;51.570;7.090;2023-11-19T07:07:53;11.80;1.00
4548;DHT22;2286;51.570;7.090;2023-11-19T07:10:21;11.80;1.00
4548;DHT22;2286;51.570;7.090;2023-11-19T07:12:47;11.80;99.90
4548;DHT22;2286;51.570;7.090;2023-11-19T07:15:16;11.80;14.90
4548;DHT22;2286;51.570;7.090;2023-11-19T07:17:44;11.80;1.00
4548;DHT22;2286;51.570;7.090;2023-11-19T07:20:11;11.80;1.00
4548;DHT22;2286;51.570;7.090;2023-11-19T07:22:42;11.70;3.20
4548;DHT22;2286;51.570;7.090;2023-11-19T07:25:11;11.70;1.00
4548;DHT22;2286;51.570;7.090;2023-11-19T07:27:39;11.70;99.90
4548;DHT22;2286;51.570;7.090;2023-11-19T07:30:06;11.80;5.50
4548;DHT22;2286;51.570;7.090;2023-11-19T07:32:34;11.80;99.90
4548;DHT22;2286;51.570;7.090;2023-11-19T07:35:00;11.80;1.00
4548;DHT22;2286;51.570;7.090;2023-11-19T07:37:27;11.80;1.00
4548;DHT22;2286;51.570;7.090;2023-11-19T07:39:56;11.80;99.90
4548;DHT22;2286;51.570;7.090;2023-11-19T07:42:22;11.70;1.00
4548;DHT22;2286;51.570;7.090;2023-11-19T07:44:49;11.70;99.90
4548;DHT22;2286;51.570;7.090;2023-11-19T07:47:16;11.70;99.90
4548;DHT22;2286;51.570;7.090;2023-11-19T07:49:43;11.70;1.00
4548;DHT22;2286;51.570;7.090;2023-11-19T07:52:10;11.70;99.90
4548;DHT22;2286;51.570;7.090;2023-11-19T07:54:37;11.60;99.90
4548;DHT22;2286;51.570;7.090;2023-11-19T07:57:05;11.60;1.00
4548;DHT22;2286;51.570;7.090;2023-11-19T07:59:32;11.70;1.00
4548;DHT22;2286;51.570;7.090;2023-11-19T08:01:59;11.70;99.90
4548;DHT22;2286;51.570;7.090;2023-11-19T08:04:25;11.70;1.00
4548;DHT22;2286;51.570;7.090;2023-11-19T08:06:52;11.70;1.00
4548;DHT22;2286;51.570;7.090;2023-11-19T08:09:19;11.70;1.00
4548;DHT22;2286;51.570;7.090;2023-11-19T08:11:46;11.70;99.90
4548;DHT22;2286;51.570;7.090;2023-11-19T08:14:14;11.80;99.90
4548;DHT22;2286;51.570;7.090;2023-11-19T08:16:41;11.80;99.90
4548;DHT22;2286;51.570;7.090;2023-11-19T08:19:08;11.80;74.00
4548;DHT22;2286;51.570;7.090;2023-11-19T08:21:35;11.90;38.30
4548;DHT22;2286;51.570;7.090;2023-11-19T08:24:02;11.90;1.00
4548;DHT22;2286;51.570;7.090;2023-11-19T08:26:29;11.90;73.20
4548;DHT22;2286;51.570;7.090;2023-11-19T08:28:55;11.90;28.00
4548;DHT22;2286;51.570;7.090;2023-11-19T08:31:24;12.00;1.00
4548;DHT22;2286;51.570;7.090;2023-11-19T08:33:51;12.10;99.90
4548;DHT22;2286;51.570;7.090;2023-11-19T08:36:18;12.10;99.90
4548;DHT22;2286;51.570;7.090;2023-11-19T08:38:45;12.10;99.90
4548;DHT22;2286;51.570;7.090;2023-11-19T08:41:13;12.10;99.90
4548;DHT22;2286;51.570;7.090;2023-11-19T08:43:40;12.20;99.90
4548;DHT22;2286;51.570;7.090;2023-11-19T08:46:09;12.20;99.90
4548;DHT22;2286;51.570;7.090;2023-11-19T08:48:38;12.20;99.90
4548;DHT22;2286;51.570;7.090;2023-11-19T08:51:05;12.10;99.90
4548;DHT22;2286;51.570;7.090;2023-11-19T08:53:32;12.10;1.00
4548;DHT22;2286;51.570;7.090;2023-11-19T08:55:58;12.10;2.00
4548;DHT22;2286;51.570;7.090;2023-11-19T08:58:25;12.10;1.00
4548;DHT22;2286;51.570;7.090;2023-11-19T09:00:52;12.20;50.60
4548;DHT22;2286;51.570;7.090;2023-11-19T09:03:19;12.30;1.00
4548;DHT22;2286;51.570;7.090;2023-11-19T09:05:48;12.40;1.00
4548;DHT22;2286;51.570;7.090;2023-11-19T09:08:15;12.40;1.00
4548;DHT22;2286;51.570;7.090;2023-11-19T09:10:42;12.40;1.00
4548;DHT22;2286;51.570;7.090;2023-11-19T09:13:09;12.40;1.00
4548;DHT22;2286;51.570;7.090;2023-11-19T09:15:35;12.40;1.00
4548;DHT22;2286;51.570;7.090;2023-11-19T09:18:02;12.40;1.00
4548;DHT22;2286;51.570;7.090;2023-11-19T09:20:30;12.50;1.00
4548;DHT22;2286;51.570;7.090;2023-11-19T09:23:04;12.50;99.90
4548;DHT22;2286;51.570;7.090;2023-11-19T09:25:31;12.50;99.90
4548;DHT22;2286;51.570;7.090;2023-11-19T09:27:58;12.60;1.00
4548;DHT22;2286;51.570;7.090;2023-11-19T09:30:25;12.60;99.90
4548;DHT22;2286;51.570;7.090;2023-11-19T09:32:52;12.60;99.90
4548;DHT22;2286;51.570;7.090;2023-11-19T09:35:18;12.50;99.90
4548;DHT22;2286;51.570;7.090;2023-11-19T09:37:45;12.50;99.90
4548;DHT22;2286;51.570;7.090;2023-11-19T09:40:13;12.60;99.90
4548;DHT22;2286;51.570;7.090;2023-11-19T09:42:43;12.60;99.90
4548;DHT22;2286;51.570;7.090;2023-11-19T09:45:13;12.60;70.50
4548;DHT22;2286;51.570;7.090;2023-11-19T09:47:42;12.60;43.00
4548;DHT22;2286;51.570;7.090;2023-11-19T09:50:11;12.60;99.90
4548;DHT22;2286;51.570;7.090;2023-11-19T09:52:41;12.60;99.90
4548;DHT22;2286;51.570;7.090;2023-11-19T09:55:08;12.60;99.90
4548;DHT22;2286;51.570;7.090;2023-11-19T09:57:38;12.60;99.90
4548;DHT22;2286;51.570;7.090;2023-11-19T10:00:06;12.50;99.90
4548;DHT22;2286;51.570;7.090;2023-11-19T10:02:34;12.50;99.90
4548;DHT22;2286;51.570;7.090;2023-11-19T10:05:05;12.60;99.90
4548;DHT22;2286;51.570;7.090;2023-11-19T10:07:33;12.60;99.90
4548;DHT22;2286;51.570;7.090;2023-11-19T10:10:00;12.60;99.90
4548;DHT22;2286;51.570;7.090;2023-11-19T10:12:27;12.70;13.60
4548;DHT22;2286;51.570;7.090;2023-11-19T10:14:57;12.70;1.00
4548;DHT22;2286;51.570;7.090;2023-11-19T10:17:27;12.70;99.90
4548;DHT22;2286;51.570;7.090;2023-11-19T10:19:54;12.70;99.90
4548;DHT22;2286;51.570;7.090;2023-11-19T10:22:22;12.70;99.90
4548;DHT22;2286;51.570;7.090;2023-11-19T10:24:49;12.70;98.70
4548;DHT22;2286;51.570;7.090;2023-11-19T10:27:17;12.80;27.50
4548;DHT22;2286;51.570;7.090;2023-11-19T10:29:45;12.80;1.00
4548;DHT22;2286;51.570;7.090;2023-11-19T10:32:14;12.90;1.00
4548;DHT22;2286;51.570;7.090;2023-11-19T10:34:42;12.90;1.00
4548;DHT22;2286;51.570;7.090;2023-11-19T10:37:09;13.00;1.00
4548;DHT22;2286;51.570;7.090;2023-11-19T10:39:54;13.00;1.00
4548;DHT22;2286;51.570;7.090;2023-11-19T10:42:21;13.00;99.90
4548;DHT22;2286;51.570;7.090;2023-11-19T10:44:48;13.00;99.90
4548;DHT22;2286;51.570;7.090;2023-11-19T10:47:19;13.00;1.00
4548;DHT22;2286;51.570;7.090;2023-11-19T10:49:46;13.00;99.90
4548;DHT22;2286;51.570;7.090;2023-11-19T10:52:15;13.00;1.00
4548;DHT22;2286;51.570;7.090;2023-11-19T10:54:44;13.00;1.00
4548;DHT22;2286;51.570;7.090;2023-11-19T10:57:19;13.10;99.90
4548;DHT22;2286;51.570;7.090;2023-11-19T10:59:47;13.30;99.90
4548;DHT22;2286;51.570;7.090;2023-11-19T11:02:19;13.30;99.90
4548;DHT22;2286;51.570;7.090;2023-11-19T11:04:50;13.40;99.90
4548;DHT22;2286;51.570;7.090;2023-11-19T11:07:21;13.50;1.00
4548;DHT22;2286;51.570;7.090;2023-11-19T11:09:51;13.40;99.90
4548;DHT22;2286;51.570;7.090;2023-11-19T11:12:22;13.40;99.90
4548;DHT22;2286;51.570;7.090;2023-11-19T11:14:49;13.30;94.10
4548;DHT22;2286;51.570;7.090;2023-11-19T11:17:18;13.20;95.50
4548;DHT22;2286;51.570;7.090;2023-11-19T11:19:46;13.20;99.90
4548;DHT22;2286;51.570;7.090;2023-11-19T11:22:15;13.10;99.90
4548;DHT22;2286;51.570;7.090;2023-11-19T11:25:08;13.10;99.90
4548;DHT22;2286;51.570;7.090;2023-11-19T11:28:08;13.10;99.90
4548;DHT22;2286;51.570;7.090;2023-11-19T11:30:49;13.20;99.90
4548;DHT22;2286;51.570;7.090;2023-11-19T11:33:34;13.20;28.90
4548;DHT22;2286;51.570;7.090;2023-11-19T11:36:10;13.30;1.30
4548;DHT22;2286;51.570;7.090;2023-11-19T11:38:40;13.30;1.00
4548;DHT22;2286;51.570;7.090;2023-11-19T11:41:18;13.40;1.00
4548;DHT22;2286;51.570;7.090;2023-11-19T11:43:47;13.40;1.00
4548;DHT22;2286;51.570;7.090;2023-11-19T11:49:27;13.50;1.00
4548;DHT22;2286;51.570;7.090;2023-11-19T11:52:02;13.50;1.00
4548;DHT22;2286;51.570;7.090;2023-11-19T11:54:32;13.60;99.90
4548;DHT22;2286;51.570;7.090;2023-11-19T11:57:10;13.70;1.00
4548;DHT22;2286;51.570;7.090;2023-11-19T11:59:47;13.80;1.00
4548;DHT22;2286;51.570;7.090;2023-11-19T12:02:16;13.80;1.00
4548;DHT22;2286;51.570;7.090;2023-11-19T12:04:47;14.00;99.90
4548;DHT22;2286;51.570;7.090;2023-11-19T12:07:20;15.10;1.00
4548;DHT22;2286;51.570;7.090;2023-11-19T12:09:48;16.20;1.00
4548;DHT22;2286;51.570;7.090;2023-11-19T12:12:22;16.30;1.00
4548;DHT22;2286;51.570;7.090;2023-11-19T12:15:06;16.00;1.00
4548;DHT22;2286;51.570;7.090;2023-11-19T12:17:47;15.20;1.00
4548;DHT22;2286;51.570;7.090;2023-11-19T12:20:20;14.50;1.00
4548;DHT22;2286;51.570;7.090;2023-11-19T12:22:48;14.10;1.00
4548;DHT22;2286;51.570;7.090;2023-11-19T12:25:16;14.00;41.10
4548;DHT22;2286;51.570;7.090;2023-11-19T12:27:46;14.10;1.00
4548;DHT22;2286;51.570;7.090;2023-11-19T12:30:17;14.50;1.00
4548;DHT22;2286;51.570;7.090;2023-11-19T12:32:45;14.90;1.00
4548;DHT22;2286;51.570;7.090;2023-11-19T12:35:13;15.10;1.00
4548;DHT22;2286;51.570;7.090;2023-11-19T12:37:45;15.00;1.00
4548;DHT22;2286;51.570;7.090;2023-11-19T12:40:16;15.10;1.00
4548;DHT22;2286;51.570;7.090;2023-11-19T12:42:43;15.10;1.00
4548;DHT22;2286;51.570;7.090;2023-11-19T12:45:10;14.70;1.00
4548;DHT22;2286;51.570;7.090;2023-11-19T12:47:38;14.40;1.00
4548;DHT22;2286;51.570;7.090;2023-11-19T12:50:06;14.20;4.10
4548;DHT22;2286;51.570;7.090;2023-11-19T12:52:33;13.90;1.00
4548;DHT22;2286;51.570;7.090;2023-11-19T12:55:02;13.30;1.00
4548;DHT22;2286;51.570;7.090;2023-11-19T12:57:39;12.80;1.00
4548;DHT22;2286;51.570;7.090;2023-11-19T13:00:17;12.40;99.90
4548;DHT22;2286;51.570;7.090;2023-11-19T13:02:46;12.20;99.90
4548;DHT22;2286;51.570;7.090;2023-11-19T13:05:22;12.00;99.90
4548;DHT22;2286;51.570;7.090;2023-11-19T13:07:49;12.00;99.90
4548;DHT22;2286;51.570;7.090;2023-11-19T13:10:17;12.10;1.00
4548;DHT22;2286;51.570;7.090;2023-11-19T13:13:02;12.50;1.00
4548;DHT22;2286;51.570;7.090;2023-11-19T13:15:29;13.10;1.00
4548;DHT22;2286;51.570;7.090;2023-11-19T13:17:56;13.60;99.90
4548;DHT22;2286;51.570;7.090;2023-11-19T13:20:23;13.60;1.00
4548;DHT22;2286;51.570;7.090;2023-11-19T13:22:57;13.30;99.90
4548;DHT22;2286;51.570;7.090;2023-11-19T13:25:25;13.00;1.00
4548;DHT22;2286;51.570;7.090;2023-11-19T13:27:52;13.00;99.90
4548;DHT22;2286;51.570;7.090;2023-11-19T13:30:19;13.00;1.00
4548;DHT22;2286;51.570;7.090;2023-11-19T13:32:47;12.90;1.00
4548;DHT22;2286;51.570;7.090;2023-11-19T13:35:14;13.00;1.00
4548;DHT22;2286;51.570;7.090;2023-11-19T13:37:42;13.10;99.90
4548;DHT22;2286;51.570;7.090;2023-11-19T13:40:11;13.60;1.00
4548;DHT22;2286;51.570;7.090;2023-11-19T13:42:41;13.80;1.00
4548;DHT22;2286;51.570;7.090;2023-11-19T13:45:09;13.60;99.90
4548;DHT22;2286;51.570;7.090;2023-11-19T13:47:37;13.60;1.00
4548;DHT22;2286;51.570;7.090;2023-11-19T13:50:07;13.40;1.00
4548;DHT22;2286;51.570;7.090;2023-11-19T13:52:35;13.10;1.00
4548;DHT22;2286;51.570;7.090;2023-11-19T13:55:04;13.10;83.40
4548;DHT22;2286;51.570;7.090;2023-11-19T13:57:31;13.40;99.90
4548;DHT22;2286;51.570;7.090;2023-11-19T14:00:01;13.90;1.00
4548;DHT22;2286;51.570;7.090;2023-11-19T14:02:31;14.50;99.90
4548;DHT22;2286;51.570;7.090;2023-11-19T14:04:58;15.30;1.00
4548;DHT22;2286;51.570;7.090;2023-11-19T14:07:25;15.80;99.90
4548;DHT22;2286;51.570;7.090;2023-11-19T14:09:52;15.90;99.90
4548;DHT22;2286;51.570;7.090;2023-11-19T14:12:19;15.40;99.90
4548;DHT22;2286;51.570;7.090;2023-11-19T14:14:46;14.60;1.00
4548;DHT22;2286;51.570;7.090;2023-11-19T14:17:15;14.10;41.90
4548;DHT22;2286;51.570;7.090;2023-11-19T14:19:42;13.80;99.90
4548;DHT22;2286;51.570;7.090;2023-11-19T14:22:09;13.60;1.00
4548;DHT22;2286;51.570;7.090;2023-11-19T14:24:36;13.40;1.00
4548;DHT22;2286;51.570;7.090;2023-11-19T14:27:03;13.30;1.00
4548;DHT22;2286;51.570;7.090;2023-11-19T14:29:30;13.30;1.00
4548;DHT22;2286;51.570;7.090;2023-11-19T14:31:57;13.10;99.90
4548;DHT22;2286;51.570;7.090;2023-11-19T14:34:26;12.90;1.00
4548;DHT22;2286;51.570;7.090;2023-11-19T14:36:53;12.60;1.00
4548;DHT22;2286;51.570;7.090;2023-11-19T14:39:20;12.20;1.00
4548;DHT22;2286;51.570;7.090;2023-11-19T14:41:47;11.90;1.00
4548;DHT22;2286;51.570;7.090;2023-11-19T14:44:15;11.90;99.90
4548;DHT22;2286;51.570;7.090;2023-11-19T14:46:41;11.90;1.00
4548;DHT22;2286;51.570;7.090;2023-11-19T14:49:08;11.90;1.00
4548;DHT22;2286;51.570;7.090;2023-11-19T14:51:37;11.80;99.90
4548;DHT22;2286;51.570;7.090;2023-11-19T14:54:04;11.70;99.90
4548;DHT22;2286;51.570;7.090;2023-11-19T14:56:31;11.80;1.00
4548;DHT22;2286;51.570;7.090;2023-11-19T14:58:58;11.80;1.00
4548;DHT22;2286;51.570;7.090;2023-11-19T15:01:25;11.80;1.00
4548;DHT22;2286;51.570;7.090;2023-11-19T15:03:54;11.70;1.00
4548;DHT22;2286;51.570;7.090;2023-11-19T15:06:23;11.70;99.90
4548;DHT22;2286;51.570;7.090;2023-11-19T15:08:52;11.80;1.00
4548;DHT22;2286;51.570;7.090;2023-11-19T15:11:20;11.70;1.00
4548;DHT22;2286;51.570;7.090;2023-11-19T15:13:46;11.60;99.90
4548;DHT22;2286;51.570;7.090;2023-11-19T15:16:14;11.60;1.00
4548;DHT22;2286;51.570;7.090;2023-11-19T15:18:47;11.60;99.90
4548;DHT22;2286;51.570;7.090;2023-11-19T15:21:14;11.50;1.00
4548;DHT22;2286;51.570;7.090;2023-11-19T15:23:41;11.50;1.00
4548;DHT22;2286;51.570;7.090;2023-11-19T15:26:09;11.50;99.90
4548;DHT22;2286;51.570;7.090;2023-11-19T15:28:36;11.50;1.00
4548;DHT22;2286;51.570;7.090;2023-11-19T15:31:04;11.50;1.00
4548;DHT22;2286;51.570;7.090;2023-11-19T15:33:30;11.60;99.90
4548;DHT22;2286;51.570;7.090;2023-11-19T15:35:57;11.60;99.90
4548;DHT22;2286;51.570;7.090;2023-11-19T15:38:25;11.60;1.00
4548;DHT22;2286;51.570;7.090;2023-11-19T15:40:52;11.50;99.90
4548;DHT22;2286;51.570;7.090;2023-11-19T15:43:21;11.40;1.00
4548;DHT22;2286;51.570;7.090;2023-11-19T15:45:48;11.30;1.00
4548;DHT22;2286;51.570;7.090;2023-11-19T15:48:15;11.20;99.90
4548;DHT22;2286;51.570;7.090;2023-11-19T15:50:42;11.20;1.00
4548;DHT22;2286;51.570;7.090;2023-11-19T15:53:10;11.10;99.90
4548;DHT22;2286;51.570;7.090;2023-11-19T15:55:36;11.20;99.90
4548;DHT22;2286;51.570;7.090;2023-11-19T15:58:03;11.20;99.90
4548;DHT22;2286;51.570;7.090;2023-11-19T16:00:33;11.20;99.90
4548;DHT22;2286;51.570;7.090;2023-11-19T16:03:00;11.10;1.00
4548;DHT22;2286;51.570;7.090;2023-11-19T16:05:26;11.10;1.00
4548;DHT22;2286;51.570;7.090;2023-11-19T16:07:54;11.10;99.90
4548;DHT22;2286;51.570;7.090;2023-11-19T16:10:20;11.10;99.90
4548;DHT22;2286;51.570;7.090;2023-11-19T16:12:47;11.10;99.90
4548;DHT22;2286;51.570;7.090;2023-11-19T16:15:14;11.20;70.40
4548;DHT22;2286;51.570;7.090;2023-11-19T16:17:42;11.20;99.90